CheckWX is a tool to help pilots better visualize weather data.  It is not intended as a substitute for an official pre-flight weather briefing.

12:34:17 UTC

LEBR TAF
Bardenas Reales Airport
Bardenas Reales, Spain
TAF LEBR 221100Z 2212/2221 VRB04KT CAVOK TEMPO 2212/2220 11010KT

Mar-22@
12:00 UTC

Mar-22 @ 12:00 UTC

Mar-22@
21:00 UTC

Mar-22 @ 21:00 UTC

TAF LEBR 221100Z 2212/2221 VRB04KT CAVOK
Wind
  • Variable at 4 KTS
Conditions
No significant weather
Cloud Levels
  • No significant clouds

Mar-22@
12:00 UTC

Mar-22 @ 12:00 UTC

Mar-22@
20:00 UTC

Mar-22 @ 20:00 UTC

TEMPO 2212/2220 11010KT

Temporary

Temporary Changes expected for less than half the time period

Wind
  • 110° at 10 KTS